Last 24 Hours

Coyote Canyon

10 Minute Data | America/Los_Angeles
as of 1/30/23 11:02 AM PST
Date & Time Temp (°F) Dew Pt (°F) RH (%) Wind Spd (mph) Wind Dir (°) Wind Gust (mph) Wind Gst Dir (°) Daily Max Temp (°F) Daily Min Temp (°F)
1/30/23 - 1100 38.4 33.6 82 12.3 N | 9 17.8 N | 9 39.5 33.2
1/30/23 - 1050 38.3 33.8 83 11.4 N | 7 15.0 N | 6 39.5 33.2
1/30/23 - 1040 38.4 33.7 83 10.3 N | 6 14.7 N | 6 39.5 33.2
1/30/23 - 1030 38.7 34.0 83 6.6 N | 4 11.2 N | 6 39.5 33.2
1/30/23 - 1020 38.8 34.6 85 6.9 N | 6 10.4 N | 4 39.5 33.2
1/30/23 - 1010 38.4 34.6 86 4.2 N | 1 8.2 N | 3 39.4 33.2
1/30/23 - 1000 37.3 33.3 85 5.9 N | 1 10.5 N | 1 37.9 33.2
1/30/23 - 0950 37.6 33.7 86 6.0 N | 1 10.7 N | 1 37.9 33.2
1/30/23 - 0940 36.9 33.4 87 3.6 N | 0 5.4 N | 0 37.8 33.2
1/30/23 - 0930 36.7 34.1 90 2.5 N | 0 5.8 N | 0 37.4 33.2
1/30/23 - 0920 35.8 33.7 92 1.7 N | 1 3.4 N | 1 36.7 33.2
1/30/23 - 0910 35.6 33.6 92 1.8 N | 2 3.1 N | 3 36.7 33.2
1/30/23 - 0900 36.3 33.0 88 2.5 N | 2 5.8 N | 2 36.7 33.2
1/30/23 - 0850 35.7 33.0 90 3.7 N | 1 6.4 N | 1 36.4 33.2
1/30/23 - 0840 35.0 33.1 93 3.6 N | 3 6.1 N | 6 35.5 33.2
1/30/23 - 0830 35.1 32.8 92 3.0 N | 8 5.0 N | 10 35.5 33.2
1/30/23 - 0820 34.9 32.0 89 4.9 N | 3 7.7 N | 2 35.2 33.2
1/30/23 - 0810 34.2 32.3 92 6.6 N | 2 9.4 N | 2 34.8 33.2
1/30/23 - 0800 33.7 32.7 96 1.3 N | 9 2.8 N | 10 34.8 33.2
1/30/23 - 0750 33.5 32.4 96 0.6 NNE | 15 2.0 N | 10 34.8 33.2
1/30/23 - 0740 33.9 32.0 93 2.5 NE | 42 4.6 NE | 54 34.8 33.2
1/30/23 - 0730 33.9 32.0 93 4.1 N | 2 5.1 N | 3 34.8 33.2
1/30/23 - 0720 33.8 31.9 93 3.7 N | 9 5.3 N | 0 34.8 33.2
1/30/23 - 0710 33.5 31.9 94 3.7 NNE | 16 4.9 NNE | 19 34.8 33.2
1/30/23 - 0700 33.5 31.7 93 3.7 N | 11 5.8 N | 9 34.8 33.2
1/30/23 - 0650 33.4 31.6 93 4.9 NNE | 12 6.4 NNE | 12 34.8 33.2
1/30/23 - 0640 33.5 31.4 92 5.2 N | 8 6.1 N | 4 34.8 33.2
1/30/23 - 0630 33.6 31.2 91 5.7 N | 4 6.8 N | 5 34.8 33.2
1/30/23 - 0620 34.0 31.1 89 4.9 N | 4 6.0 N | 5 34.8 33.2
1/30/23 - 0610 34.2 31.1 88 3.7 N | 8 5.2 N | 9 34.8 33.2
1/30/23 - 0600 34.3 31.0 88 4.3 N | 8 5.5 N | 10 34.8 33.2
1/30/23 - 0550 34.2 31.0 88 4.4 N | 7 6.1 N | 7 34.8 33.2
1/30/23 - 0540 34.3 31.0 88 5.4 N | 4 7.6 N | 5 34.8 33.2
1/30/23 - 0530 34.5 31.1 87 3.0 NNE | 12 3.7 NNE | 13 34.8 33.2
1/30/23 - 0520 34.4 31.1 87 2.0 NNE | 17 3.7 NNE | 16 34.8 33.2
1/30/23 - 0510 34.6 31.0 87 2.1 NE | 40 3.9 NE | 37 34.8 33.2
1/30/23 - 0500 34.5 31.0 87 1.9 NNE | 28 3.9 NNE | 30 34.8 33.2
1/30/23 - 0450 34.7 30.7 85 1.6 NE | 39 4.7 NE | 49 34.8 33.2
1/30/23 - 0440 34.5 30.5 85 0.6 NNE | 22 1.9 NE | 37 34.8 33.2
1/30/23 - 0430 34.4 30.6 86 0.5 N | 2 1.6 N | 3 34.8 33.2
1/30/23 - 0420 33.8 30.8 89 1.0 NNE | 14 2.7 N | 7 34.8 33.2
1/30/23 - 0410 33.8 30.6 88 4.1 N | 7 5.9 N | 8 34.8 33.2
1/30/23 - 0400 34.6 30.5 85 2.5 NNE | 14 5.6 N | 9 34.8 33.2
1/30/23 - 0350 34.4 30.6 86 2.0 NNE | 18 3.5 NNE | 18 34.7 33.2
1/30/23 - 0340 34.3 30.8 87 3.1 NNE | 12 4.4 N | 9 34.6 33.2
1/30/23 - 0330 34.3 31.1 88 2.8 NNE | 21 5.1 NNE | 18 34.6 33.2
1/30/23 - 0320 33.7 31.7 92 3.0 NNE | 13 4.5 N | 5 34.6 33.2
1/30/23 - 0310 33.9 31.6 91 3.6 NNE | 12 5.6 N | 5 34.6 33.2
1/30/23 - 0300 33.6 32.4 95 2.0 NE | 47 5.7 NE | 46 34.6 33.2
1/30/23 - 0250 33.3 31.9 95 0.7 NNE | 32 2.8 NE | 47 34.6 33.2
1/30/23 - 0240 34.2 31.5 90 3.2 NE | 45 6.1 NE | 50 34.6 33.2
1/30/23 - 0230 34.3 31.8 90 4.4 ENE | 59 7.9 NE | 51 34.6 33.2
1/30/23 - 0220 33.5 32.1 94 5.2 ENE | 76 6.6 ENE | 77 34.4 33.2
1/30/23 - 0210 33.7 32.3 94 4.3 ENE | 76 6.1 E | 79 34.4 33.2
1/30/23 - 0200 33.6 32.2 95 7.7 ENE | 74 9.3 ENE | 74 34.4 33.2
1/30/23 - 0150 33.6 31.9 93 7.2 ENE | 73 8.3 ENE | 74 34.4 33.2
1/30/23 - 0140 33.9 31.7 92 5.5 ENE | 70 7.5 ENE | 70 34.4 33.2
1/30/23 - 0130 34.2 31.7 91 5.0 ENE | 69 7.4 ENE | 68 34.4 33.2
1/30/23 - 0120 34.3 31.9 91 3.5 ENE | 63 6.1 ENE | 60 34.4 33.2
1/30/23 - 0110 33.8 32.7 96 4.5 ENE | 63 8.6 NE | 43 34.4 33.2
1/30/23 - 0100 33.5 32.7 97 5.6 ENE | 71 7.1 ENE | 71 34.1 33.2
1/30/23 - 0050 33.4 33.0 99 6.2 ENE | 65 9.6 ENE | 68 34.1 33.2
1/30/23 - 0040 33.5 33.4 100 6.8 ENE | 64 9.7 ENE | 58 34.1 33.2
1/30/23 - 0030 33.7 33.7 100 7.5 ENE | 61 12.3 ENE | 59 34.1 33.2
1/30/23 - 0020 33.4 33.4 100 5.0 ENE | 64 8.9 ENE | 67 33.5 33.2
1/30/23 - 0010 33.3 33.3 100 6.0 ENE | 66 8.8 ENE | 66 33.4 33.2
1/30/23 - 0000 33.6 33.6 100 6.8 ENE | 66 9.7 ENE | 64 40.4 33.2
1/29/23 - 2350 33.9 33.9 100 7.2 ENE | 65 10.3 ENE | 64 40.4 33.2
1/29/23 - 2340 34.0 34.0 100 7.7 ENE | 66 10.7 ENE | 66 40.4 33.2
1/29/23 - 2330 33.9 33.9 100 8.4 ENE | 66 11.3 ENE | 66 40.4 33.2
1/29/23 - 2320 33.7 33.7 100 8.8 ENE | 67 11.7 ENE | 68 40.4 33.2
1/29/23 - 2310 33.5 33.5 100 8.3 ENE | 66 10.5 ENE | 66 40.4 33.2
1/29/23 - 2300 33.2 33.2 100 6.9 ENE | 65 10.4 ENE | 66 40.4 33.2
1/29/23 - 2250 33.4 33.4 100 5.6 ENE | 64 7.4 ENE | 63 40.4 33.2
1/29/23 - 2240 33.6 33.6 100 6.1 ENE | 59 10.2 NE | 46 40.4 33.2
1/29/23 - 2230 33.3 33.3 100 6.1 ENE | 59 9.3 ENE | 60 40.4 33.2
1/29/23 - 2220 33.3 33.3 100 7.5 ENE | 59 9.7 ENE | 58 40.4 33.2
1/29/23 - 2210 33.2 33.1 100 6.6 ENE | 60 8.9 ENE | 60 40.4 33.2
1/29/23 - 2200 33.4 33.3 99 7.6 ENE | 61 10.6 ENE | 57 40.4 33.3
1/29/23 - 2150 33.6 33.3 99 9.8 ENE | 60 12.5 ENE | 60 40.4 33.5
1/29/23 - 2140 33.7 33.4 99 9.2 ENE | 59 13.7 ENE | 57 40.4 33.6
1/29/23 - 2130 33.9 33.4 98 10.2 ENE | 57 13.6 NE | 56 40.4 33.6
1/29/23 - 2120 33.9 33.4 98 12.6 ENE | 64 16.2 ENE | 57 40.4 33.6
1/29/23 - 2110 34.0 33.4 98 13.6 ESE | 103 17.1 SE | 145 40.4 33.6
1/29/23 - 2100 33.9 33.4 98 13.8 SSW | 207 18.3 WSW | 242 40.4 33.6
1/29/23 - 2050 33.8 33.2 98 14.0 SSW | 192 17.7 SSE | 153 40.4 33.6
1/29/23 - 2040 33.9 33.2 97 15.6 SE | 136 21.2 E | 95 40.4 33.8
1/29/23 - 2030 34.1 33.3 97 14.4 S | 169 19.0 E | 99 40.4 34.0
1/29/23 - 2020 34.6 33.6 96 11.1 S | 177 18.6 S | 173 40.4 34.4
1/29/23 - 2010 34.7 34.1 98 10.4 S | 184 14.0 SSE | 158 40.4 34.6
1/29/23 - 2000 34.6 34.2 98 9.9 SSE | 162 13.8 SSE | 165 40.4 34.6
1/29/23 - 1950 34.7 34.2 98 10.9 SSE | 157 16.0 SE | 137 40.4 34.7
1/29/23 - 1940 34.8 34.2 98 12.0 SSE | 168 16.9 S | 175 40.4 34.7
1/29/23 - 1930 35.1 34.3 97 12.7 SE | 134 17.0 ENE | 58 40.4 34.8
1/29/23 - 1920 35.4 34.2 95 13.8 E | 92 19.3 NE | 52 40.4 34.8
1/29/23 - 1910 35.6 34.1 94 14.2 SE | 128 18.6 NE | 56 40.4 34.8
1/29/23 - 1900 35.8 34.8 96 12.9 E | 80 19.4 NE | 51 40.4 34.8
1/29/23 - 1850 36.0 35.3 97 10.4 ENE | 67 15.3 NE | 52 40.4 34.8
1/29/23 - 1840 35.9 35.4 98 11.9 ENE | 64 16.4 NE | 52 40.4 34.8
1/29/23 - 1830 35.9 35.4 98 9.4 SE | 145 13.4 SSW | 204 40.4 34.8
1/29/23 - 1820 36.0 35.5 98 10.0 ESE | 122 13.7 S | 184 40.4 34.8
1/29/23 - 1810 36.1 35.7 98 12.1 S | 172 17.1 SSE | 168 40.4 34.8
1/29/23 - 1800 36.1 35.8 99 12.0 SSE | 148 15.7 NE | 52 40.4 34.8
1/29/23 - 1750 36.4 36.1 99 10.0 NE | 50 15.2 NE | 49 40.4 34.8
1/29/23 - 1740 36.6 36.2 98 8.4 NE | 51 14.1 NE | 51 40.4 34.8
1/29/23 - 1730 36.7 36.2 98 11.6 NE | 52 17.3 NE | 52 40.4 34.8
1/29/23 - 1720 36.8 36.2 98 11.5 NE | 53 16.0 NE | 53 40.4 34.8
1/29/23 - 1710 36.9 36.2 97 11.9 NE | 53 16.2 NE | 54 40.4 34.8
1/29/23 - 1700 37.1 36.0 96 12.1 NE | 53 16.5 NE | 50 40.4 34.8
1/29/23 - 1650 37.2 36.1 96 15.1 NE | 50 20.0 NE | 47 40.4 34.8
1/29/23 - 1640 37.3 36.1 95 14.6 NE | 49 20.0 NE | 45 40.4 34.8
1/29/23 - 1630 37.4 36.1 95 14.8 ENE | 59 20.5 NE | 43 40.4 34.8
1/29/23 - 1620 37.4 36.4 96 14.6 ENE | 65 20.0 NE | 42 40.4 34.8
1/29/23 - 1610 37.1 36.2 96 15.7 NE | 43 23.8 NE | 36 40.4 34.8
1/29/23 - 1600 37.5 36.7 97 15.2 NE | 40 20.7 NE | 37 40.4 34.8
1/29/23 - 1550 37.6 37.1 98 16.6 NNE | 31 24.5 NNE | 20 40.4 34.8
1/29/23 - 1540 37.6 37.4 99 18.0 NNE | 18 26.6 N | 9 40.4 34.8
1/29/23 - 1530 37.7 37.3 98 20.3 NNE | 13 28.5 N | 4 40.4 34.8
1/29/23 - 1520 38.2 37.5 97 16.4 NNE | 23 23.9 NNE | 14 40.4 34.8
1/29/23 - 1510 38.5 37.6 96 16.8 NNE | 21 23.3 NNE | 20 40.4 34.8
1/29/23 - 1500 38.4 37.1 95 17.2 NNE | 15 24.2 NNE | 12 40.4 34.8
1/29/23 - 1450 38.6 37.1 94 15.6 NNE | 17 20.8 N | 10 40.4 34.8
1/29/23 - 1440 39.1 36.7 91 16.9 N | 8 28.5 N | 9 40.4 34.8
1/29/23 - 1430 38.8 37.2 94 16.1 NNE | 13 25.1 NNE | 12 40.4 34.8
1/29/23 - 1420 38.6 37.7 97 14.8 NNE | 19 22.8 NNE | 14 40.4 34.8
1/29/23 - 1410 38.5 37.5 96 11.8 NNE | 20 15.6 NNE | 20 40.4 34.8
1/29/23 - 1400 39.0 37.3 94 10.8 NNE | 18 16.1 NNE | 19 40.4 34.8
1/29/23 - 1350 39.0 36.4 90 11.2 NNE | 16 15.3 NNE | 16 40.4 34.8
1/29/23 - 1340 38.7 35.8 89 13.4 NNE | 14 19.3 NNE | 14 40.4 34.8
1/29/23 - 1330 39.3 36.0 88 13.9 NNE | 12 21.8 NNE | 12 40.4 34.8
1/29/23 - 1320 40.0 36.5 87 10.5 NNE | 12 18.6 N | 11 40.4 34.8
1/29/23 - 1310 39.6 36.8 90 12.6 N | 10 18.3 NNE | 16 40.4 34.8
1/29/23 - 1300 39.0 37.2 93 11.7 NNE | 23 19.4 NNE | 17 39.4 34.8
1/29/23 - 1250 38.7 37.5 95 16.3 NNE | 30 22.6 NNE | 26 39.4 34.8
1/29/23 - 1240 38.5 37.6 96 14.8 NNE | 32 23.5 NNE | 25 39.4 34.8
1/29/23 - 1230 38.4 37.5 96 16.9 NNE | 22 25.6 NNE | 17 39.4 34.8
1/29/23 - 1220 38.1 37.3 97 17.7 NNE | 15 25.9 N | 9 39.4 34.8
1/29/23 - 1210 38.0 37.3 97 18.4 NNE | 19 25.4 NNE | 16 39.4 34.8
1/29/23 - 1200 37.7 36.7 96 19.3 NNE | 21 24.6 NNE | 15 39.4 34.8
1/29/23 - 1150 38.0 36.6 95 16.6 NNE | 20 22.9 NNE | 18 39.4 34.8
1/29/23 - 1140 38.4 36.3 92 16.4 NNE | 19 24.6 NNE | 15 39.4 34.8
1/29/23 - 1130 38.6 36.0 90 17.1 NNE | 19 24.3 NNE | 18 39.4 34.8
1/29/23 - 1120 38.9 35.7 88 16.3 NNE | 17 21.8 NNE | 14 39.4 34.8
1/29/23 - 1110 38.9 36.5 91 16.7 NNE | 14 23.8 NNE | 14 39.4 34.8
1/29/23 - 1100 39.0 36.5 91 17.5 NNE | 14 24.5 N | 11 39.4 34.8
Max 40.0 37.7 100 20.3 - 28.5 - 40.4 34.8
Avg 35.6 33.9 94 8.9 - 12.9 - - -
Min 33.2 30.5 82 0.5 - 1.6 - 33.4 33.2